Terminal Aerodrome Forecast
Issued by NWS

Home | Current Version | Previous Version | Text Only | Print | Product List | Glossary On
Versions: 1 2 3 4 5 6 7 8 9 10 11 12 13 14 15 16
000
FTUS43 KAPX 261120
TAFMBL
TAF
KMBL 261120Z 2612/2712 20007KT P6SM SCT050 BKN150 WS020/22040KT
     FM261400 21008G16KT P6SM VCSH BKN040 BKN250
     FM261800 21011G20KT P6SM VCTS BKN050CB
     FM270500 15006KT P6SM FEW070 BKN150
      AMD LTD TO CLD VIS AND WIND=

USA.gov is the U.S. government's official web portal to all federal, state and local government web resources and services.